sensor_id;sensor_type;location;lat;lon;timestamp;P1;durP1;ratioP1;P2;durP2;ratioP2
58928;SDS011;44713;53.378;10.022;2023-05-10T00:00:50;6.70;;;2.35;;
58928;SDS011;44713;53.378;10.022;2023-05-10T00:03:16;5.05;;;2.50;;
58928;SDS011;44713;53.378;10.022;2023-05-10T00:05:41;5.30;;;2.25;;
58928;SDS011;44713;53.378;10.022;2023-05-10T00:08:07;5.50;;;2.38;;
58928;SDS011;44713;53.378;10.022;2023-05-10T00:10:32;2.92;;;2.00;;
58928;SDS011;44713;53.378;10.022;2023-05-10T00:12:58;3.60;;;2.40;;
58928;SDS011;44713;53.378;10.022;2023-05-10T00:15:23;4.95;;;2.17;;
58928;SDS011;44713;53.378;10.022;2023-05-10T00:17:48;5.70;;;2.78;;
58928;SDS011;44713;53.378;10.022;2023-05-10T00:20:13;5.28;;;2.53;;
58928;SDS011;44713;53.378;10.022;2023-05-10T00:22:39;3.15;;;2.60;;
58928;SDS011;44713;53.378;10.022;2023-05-10T00:25:04;2.90;;;2.35;;
58928;SDS011;44713;53.378;10.022;2023-05-10T00:27:31;4.38;;;2.83;;
58928;SDS011;44713;53.378;10.022;2023-05-10T00:29:56;4.80;;;3.10;;
58928;SDS011;44713;53.378;10.022;2023-05-10T00:32:21;4.30;;;2.53;;
58928;SDS011;44713;53.378;10.022;2023-05-10T00:34:47;3.90;;;2.58;;
58928;SDS011;44713;53.378;10.022;2023-05-10T00:37:12;3.97;;;2.65;;
58928;SDS011;44713;53.378;10.022;2023-05-10T00:39:37;6.20;;;2.67;;
58928;SDS011;44713;53.378;10.022;2023-05-10T00:42:03;2.65;;;2.25;;
58928;SDS011;44713;53.378;10.022;2023-05-10T00:44:29;3.03;;;2.28;;
58928;SDS011;44713;53.378;10.022;2023-05-10T00:46:56;3.83;;;2.40;;
58928;SDS011;44713;53.378;10.022;2023-05-10T00:49:22;3.33;;;2.63;;
58928;SDS011;44713;53.378;10.022;2023-05-10T00:51:49;4.00;;;2.25;;
58928;SDS011;44713;53.378;10.022;2023-05-10T00:54:15;7.90;;;3.03;;
58928;SDS011;44713;53.378;10.022;2023-05-10T00:56:41;3.25;;;2.90;;
58928;SDS011;44713;53.378;10.022;2023-05-10T00:59:07;8.63;;;3.17;;
58928;SDS011;44713;53.378;10.022;2023-05-10T01:01:35;3.40;;;2.60;;
58928;SDS011;44713;53.378;10.022;2023-05-10T01:04:01;4.05;;;2.88;;
58928;SDS011;44713;53.378;10.022;2023-05-10T01:06:28;4.97;;;2.75;;
58928;SDS011;44713;53.378;10.022;2023-05-10T01:08:53;5.50;;;2.90;;
58928;SDS011;44713;53.378;10.022;2023-05-10T01:11:18;6.03;;;2.60;;
58928;SDS011;44713;53.378;10.022;2023-05-10T01:13:44;7.75;;;2.80;;
58928;SDS011;44713;53.378;10.022;2023-05-10T01:16:15;5.10;;;3.25;;
58928;SDS011;44713;53.378;10.022;2023-05-10T01:18:41;4.43;;;2.70;;
58928;SDS011;44713;53.378;10.022;2023-05-10T01:21:14;4.03;;;2.90;;
58928;SDS011;44713;53.378;10.022;2023-05-10T01:24:02;7.93;;;3.20;;
58928;SDS011;44713;53.378;10.022;2023-05-10T01:32:18;7.18;;;3.10;;
58928;SDS011;44713;53.378;10.022;2023-05-10T01:37:47;3.83;;;2.65;;
58928;SDS011;44713;53.378;10.022;2023-05-10T01:40:19;3.88;;;2.80;;
58928;SDS011;44713;53.378;10.022;2023-05-10T01:42:51;9.15;;;2.92;;
58928;SDS011;44713;53.378;10.022;2023-05-10T01:45:24;4.03;;;2.65;;
58928;SDS011;44713;53.378;10.022;2023-05-10T01:50:24;5.60;;;2.58;;
58928;SDS011;44713;53.378;10.022;2023-05-10T01:52:54;3.83;;;2.95;;
58928;SDS011;44713;53.378;10.022;2023-05-10T01:55:23;5.68;;;3.35;;
58928;SDS011;44713;53.378;10.022;2023-05-10T01:57:53;6.85;;;3.17;;
58928;SDS011;44713;53.378;10.022;2023-05-10T02:00:25;5.72;;;2.75;;
58928;SDS011;44713;53.378;10.022;2023-05-10T02:02:52;6.05;;;3.10;;
58928;SDS011;44713;53.378;10.022;2023-05-10T02:05:18;3.97;;;3.15;;
58928;SDS011;44713;53.378;10.022;2023-05-10T02:07:45;5.18;;;3.08;;
58928;SDS011;44713;53.378;10.022;2023-05-10T02:10:12;3.28;;;2.90;;
58928;SDS011;44713;53.378;10.022;2023-05-10T02:12:41;3.72;;;3.33;;
58928;SDS011;44713;53.378;10.022;2023-05-10T02:15:08;7.38;;;3.40;;
58928;SDS011;44713;53.378;10.022;2023-05-10T02:17:35;4.18;;;3.03;;
58928;SDS011;44713;53.378;10.022;2023-05-10T02:20:03;6.22;;;3.15;;
58928;SDS011;44713;53.378;10.022;2023-05-10T02:22:31;7.40;;;3.55;;
58928;SDS011;44713;53.378;10.022;2023-05-10T02:24:58;6.18;;;3.20;;
58928;SDS011;44713;53.378;10.022;2023-05-10T02:27:27;6.60;;;3.30;;
58928;SDS011;44713;53.378;10.022;2023-05-10T02:29:54;9.35;;;3.38;;
58928;SDS011;44713;53.378;10.022;2023-05-10T02:32:21;5.30;;;3.17;;
58928;SDS011;44713;53.378;10.022;2023-05-10T02:34:49;8.30;;;3.67;;
58928;SDS011;44713;53.378;10.022;2023-05-10T02:37:17;6.93;;;2.97;;
58928;SDS011;44713;53.378;10.022;2023-05-10T02:39:45;5.53;;;3.58;;
58928;SDS011;44713;53.378;10.022;2023-05-10T02:42:13;3.97;;;3.22;;
58928;SDS011;44713;53.378;10.022;2023-05-10T02:44:42;3.53;;;3.22;;
58928;SDS011;44713;53.378;10.022;2023-05-10T02:47:09;4.80;;;3.33;;
58928;SDS011;44713;53.378;10.022;2023-05-10T02:49:35;4.28;;;3.20;;
58928;SDS011;44713;53.378;10.022;2023-05-10T02:52:01;7.10;;;3.35;;
58928;SDS011;44713;53.378;10.022;2023-05-10T02:54:31;10.43;;;4.13;;
58928;SDS011;44713;53.378;10.022;2023-05-10T02:57:00;5.57;;;3.30;;
58928;SDS011;44713;53.378;10.022;2023-05-10T02:59:27;4.13;;;3.58;;
58928;SDS011;44713;53.378;10.022;2023-05-10T03:01:53;6.18;;;3.60;;
58928;SDS011;44713;53.378;10.022;2023-05-10T03:04:18;4.82;;;3.10;;
58928;SDS011;44713;53.378;10.022;2023-05-10T03:06:44;4.03;;;3.20;;
58928;SDS011;44713;53.378;10.022;2023-05-10T03:09:10;4.95;;;3.40;;
58928;SDS011;44713;53.378;10.022;2023-05-10T03:14:09;4.97;;;4.25;;
58928;SDS011;44713;53.378;10.022;2023-05-10T03:16:44;4.38;;;3.60;;
58928;SDS011;44713;53.378;10.022;2023-05-10T03:19:22;5.80;;;3.13;;
58928;SDS011;44713;53.378;10.022;2023-05-10T03:21:52;6.47;;;3.15;;
58928;SDS011;44713;53.378;10.022;2023-05-10T03:24:20;5.97;;;3.65;;
58928;SDS011;44713;53.378;10.022;2023-05-10T03:26:48;8.05;;;3.40;;
58928;SDS011;44713;53.378;10.022;2023-05-10T03:29:16;5.97;;;4.10;;
58928;SDS011;44713;53.378;10.022;2023-05-10T03:31:42;6.75;;;3.53;;
58928;SDS011;44713;53.378;10.022;2023-05-10T03:34:08;5.28;;;3.63;;
58928;SDS011;44713;53.378;10.022;2023-05-10T03:36:33;5.38;;;3.33;;
58928;SDS011;44713;53.378;10.022;2023-05-10T03:38:58;4.43;;;2.90;;
58928;SDS011;44713;53.378;10.022;2023-05-10T03:41:24;5.68;;;3.67;;
58928;SDS011;44713;53.378;10.022;2023-05-10T03:43:50;7.60;;;3.60;;
58928;SDS011;44713;53.378;10.022;2023-05-10T03:46:16;4.07;;;3.50;;
58928;SDS011;44713;53.378;10.022;2023-05-10T03:48:42;5.38;;;4.00;;
58928;SDS011;44713;53.378;10.022;2023-05-10T03:51:07;5.72;;;3.40;;
58928;SDS011;44713;53.378;10.022;2023-05-10T03:53:33;4.85;;;3.97;;
58928;SDS011;44713;53.378;10.022;2023-05-10T03:55:58;5.60;;;3.50;;
58928;SDS011;44713;53.378;10.022;2023-05-10T03:58:23;7.50;;;3.78;;
58928;SDS011;44713;53.378;10.022;2023-05-10T04:00:49;4.32;;;3.20;;
58928;SDS011;44713;53.378;10.022;2023-05-10T04:03:15;6.05;;;3.88;;
58928;SDS011;44713;53.378;10.022;2023-05-10T04:05:41;5.15;;;3.70;;
58928;SDS011;44713;53.378;10.022;2023-05-10T04:08:06;4.55;;;3.60;;
58928;SDS011;44713;53.378;10.022;2023-05-10T04:10:32;4.88;;;3.65;;
58928;SDS011;44713;53.378;10.022;2023-05-10T04:12:57;4.75;;;3.63;;
58928;SDS011;44713;53.378;10.022;2023-05-10T04:15:22;7.53;;;3.70;;
58928;SDS011;44713;53.378;10.022;2023-05-10T04:17:48;9.00;;;3.58;;
58928;SDS011;44713;53.378;10.022;2023-05-10T04:20:13;4.75;;;3.88;;
58928;SDS011;44713;53.378;10.022;2023-05-10T04:22:39;7.35;;;3.47;;
58928;SDS011;44713;53.378;10.022;2023-05-10T04:25:05;7.75;;;4.07;;
58928;SDS011;44713;53.378;10.022;2023-05-10T04:27:31;7.40;;;4.32;;
58928;SDS011;44713;53.378;10.022;2023-05-10T04:29:56;6.15;;;3.60;;
58928;SDS011;44713;53.378;10.022;2023-05-10T04:32:22;5.55;;;3.40;;
58928;SDS011;44713;53.378;10.022;2023-05-10T04:34:47;8.50;;;4.20;;
58928;SDS011;44713;53.378;10.022;2023-05-10T04:37:13;4.57;;;3.50;;
58928;SDS011;44713;53.378;10.022;2023-05-10T04:39:38;3.83;;;3.40;;
58928;SDS011;44713;53.378;10.022;2023-05-10T04:42:03;6.15;;;3.80;;
58928;SDS011;44713;53.378;10.022;2023-05-10T04:44:31;5.95;;;3.60;;
58928;SDS011;44713;53.378;10.022;2023-05-10T04:46:56;4.25;;;3.65;;
58928;SDS011;44713;53.378;10.022;2023-05-10T04:49:22;7.75;;;3.83;;
58928;SDS011;44713;53.378;10.022;2023-05-10T04:51:47;6.28;;;3.80;;
58928;SDS011;44713;53.378;10.022;2023-05-10T04:54:13;4.22;;;3.50;;
58928;SDS011;44713;53.378;10.022;2023-05-10T04:56:38;6.00;;;3.92;;
58928;SDS011;44713;53.378;10.022;2023-05-10T04:59:03;8.77;;;3.88;;
58928;SDS011;44713;53.378;10.022;2023-05-10T05:01:29;6.72;;;3.70;;
58928;SDS011;44713;53.378;10.022;2023-05-10T05:03:54;6.88;;;3.85;;
58928;SDS011;44713;53.378;10.022;2023-05-10T05:06:19;5.22;;;3.70;;
58928;SDS011;44713;53.378;10.022;2023-05-10T05:08:46;5.93;;;3.70;;
58928;SDS011;44713;53.378;10.022;2023-05-10T05:11:11;6.47;;;3.92;;
58928;SDS011;44713;53.378;10.022;2023-05-10T05:13:37;5.38;;;3.20;;
58928;SDS011;44713;53.378;10.022;2023-05-10T05:16:02;4.60;;;3.70;;
58928;SDS011;44713;53.378;10.022;2023-05-10T05:18:28;4.75;;;3.53;;
58928;SDS011;44713;53.378;10.022;2023-05-10T05:20:53;6.45;;;4.28;;
58928;SDS011;44713;53.378;10.022;2023-05-10T05:23:18;6.68;;;3.90;;
58928;SDS011;44713;53.378;10.022;2023-05-10T05:25:46;4.88;;;3.90;;
58928;SDS011;44713;53.378;10.022;2023-05-10T05:28:12;5.13;;;3.70;;
58928;SDS011;44713;53.378;10.022;2023-05-10T05:30:37;5.70;;;4.07;;
58928;SDS011;44713;53.378;10.022;2023-05-10T05:33:03;6.95;;;3.65;;
58928;SDS011;44713;53.378;10.022;2023-05-10T05:35:28;5.68;;;3.80;;
58928;SDS011;44713;53.378;10.022;2023-05-10T05:37:54;4.75;;;3.63;;
58928;SDS011;44713;53.378;10.022;2023-05-10T05:40:19;4.63;;;3.30;;
58928;SDS011;44713;53.378;10.022;2023-05-10T05:42:45;5.43;;;3.42;;
58928;SDS011;44713;53.378;10.022;2023-05-10T05:45:11;4.78;;;3.78;;
58928;SDS011;44713;53.378;10.022;2023-05-10T05:47:38;6.38;;;3.40;;
58928;SDS011;44713;53.378;10.022;2023-05-10T05:50:04;7.88;;;3.50;;
58928;SDS011;44713;53.378;10.022;2023-05-10T05:52:30;4.25;;;3.33;;
58928;SDS011;44713;53.378;10.022;2023-05-10T05:54:56;6.80;;;3.88;;
58928;SDS011;44713;53.378;10.022;2023-05-10T05:57:21;3.80;;;3.25;;
58928;SDS011;44713;53.378;10.022;2023-05-10T05:59:46;4.82;;;3.65;;
58928;SDS011;44713;53.378;10.022;2023-05-10T06:02:12;7.63;;;3.90;;
58928;SDS011;44713;53.378;10.022;2023-05-10T06:04:38;4.22;;;3.70;;
58928;SDS011;44713;53.378;10.022;2023-05-10T06:07:03;4.13;;;3.50;;
58928;SDS011;44713;53.378;10.022;2023-05-10T06:09:28;4.18;;;3.25;;
58928;SDS011;44713;53.378;10.022;2023-05-10T06:11:54;5.22;;;3.40;;
58928;SDS011;44713;53.378;10.022;2023-05-10T06:14:22;9.43;;;3.80;;
58928;SDS011;44713;53.378;10.022;2023-05-10T06:16:48;4.53;;;3.45;;
58928;SDS011;44713;53.378;10.022;2023-05-10T06:19:13;7.80;;;3.42;;
58928;SDS011;44713;53.378;10.022;2023-05-10T06:21:38;4.35;;;3.95;;
58928;SDS011;44713;53.378;10.022;2023-05-10T06:24:04;6.30;;;3.47;;
58928;SDS011;44713;53.378;10.022;2023-05-10T06:26:31;4.28;;;3.70;;
58928;SDS011;44713;53.378;10.022;2023-05-10T06:28:58;5.60;;;3.63;;
58928;SDS011;44713;53.378;10.022;2023-05-10T06:31:23;4.47;;;3.70;;
58928;SDS011;44713;53.378;10.022;2023-05-10T06:33:48;4.95;;;3.65;;
58928;SDS011;44713;53.378;10.022;2023-05-10T06:36:14;5.95;;;4.25;;
58928;SDS011;44713;53.378;10.022;2023-05-10T06:38:39;4.80;;;3.75;;
58928;SDS011;44713;53.378;10.022;2023-05-10T06:41:04;7.63;;;3.50;;
58928;SDS011;44713;53.378;10.022;2023-05-10T06:43:30;5.10;;;3.70;;
58928;SDS011;44713;53.378;10.022;2023-05-10T06:45:56;3.28;;;2.97;;
58928;SDS011;44713;53.378;10.022;2023-05-10T06:48:21;5.03;;;3.22;;
58928;SDS011;44713;53.378;10.022;2023-05-10T06:50:46;4.95;;;3.75;;
58928;SDS011;44713;53.378;10.022;2023-05-10T06:53:12;4.15;;;3.75;;
58928;SDS011;44713;53.378;10.022;2023-05-10T06:55:38;6.82;;;3.92;;
58928;SDS011;44713;53.378;10.022;2023-05-10T06:58:03;5.45;;;3.90;;
58928;SDS011;44713;53.378;10.022;2023-05-10T07:00:29;6.65;;;3.80;;
58928;SDS011;44713;53.378;10.022;2023-05-10T07:02:54;4.72;;;3.72;;
58928;SDS011;44713;53.378;10.022;2023-05-10T07:05:20;6.65;;;3.70;;
58928;SDS011;44713;53.378;10.022;2023-05-10T07:07:46;5.25;;;3.53;;
58928;SDS011;44713;53.378;10.022;2023-05-10T07:10:11;6.47;;;4.05;;
58928;SDS011;44713;53.378;10.022;2023-05-10T07:12:37;4.82;;;3.40;;
58928;SDS011;44713;53.378;10.022;2023-05-10T07:15:03;10.05;;;4.45;;
58928;SDS011;44713;53.378;10.022;2023-05-10T07:17:29;4.15;;;3.70;;
58928;SDS011;44713;53.378;10.022;2023-05-10T07:19:54;5.43;;;3.80;;
58928;SDS011;44713;53.378;10.022;2023-05-10T07:22:20;6.57;;;3.72;;
58928;SDS011;44713;53.378;10.022;2023-05-10T07:24:45;7.43;;;3.33;;
58928;SDS011;44713;53.378;10.022;2023-05-10T07:27:11;5.00;;;3.47;;
58928;SDS011;44713;53.378;10.022;2023-05-10T07:29:37;4.55;;;3.60;;
58928;SDS011;44713;53.378;10.022;2023-05-10T07:32:03;6.95;;;3.10;;
58928;SDS011;44713;53.378;10.022;2023-05-10T07:34:28;6.05;;;3.55;;
58928;SDS011;44713;53.378;10.022;2023-05-10T07:36:56;4.10;;;3.70;;
58928;SDS011;44713;53.378;10.022;2023-05-10T07:39:22;4.88;;;3.55;;
58928;SDS011;44713;53.378;10.022;2023-05-10T07:41:48;6.82;;;3.88;;
58928;SDS011;44713;53.378;10.022;2023-05-10T07:44:13;4.65;;;3.42;;
58928;SDS011;44713;53.378;10.022;2023-05-10T07:46:38;5.57;;;3.90;;
58928;SDS011;44713;53.378;10.022;2023-05-10T07:49:04;5.40;;;3.58;;
58928;SDS011;44713;53.378;10.022;2023-05-10T07:51:29;6.47;;;3.60;;
58928;SDS011;44713;53.378;10.022;2023-05-10T07:53:55;6.95;;;3.53;;
58928;SDS011;44713;53.378;10.022;2023-05-10T07:56:22;3.97;;;3.50;;
58928;SDS011;44713;53.378;10.022;2023-05-10T07:58:50;9.30;;;3.75;;
58928;SDS011;44713;53.378;10.022;2023-05-10T08:01:15;7.45;;;3.80;;
58928;SDS011;44713;53.378;10.022;2023-05-10T08:03:41;7.00;;;3.70;;
58928;SDS011;44713;53.378;10.022;2023-05-10T08:06:06;4.78;;;3.75;;
58928;SDS011;44713;53.378;10.022;2023-05-10T08:08:31;6.97;;;3.85;;
58928;SDS011;44713;53.378;10.022;2023-05-10T08:10:57;3.72;;;3.35;;
58928;SDS011;44713;53.378;10.022;2023-05-10T08:13:22;6.85;;;4.50;;
58928;SDS011;44713;53.378;10.022;2023-05-10T08:15:47;7.35;;;3.92;;
58928;SDS011;44713;53.378;10.022;2023-05-10T08:18:13;4.35;;;3.45;;
58928;SDS011;44713;53.378;10.022;2023-05-10T08:20:38;5.88;;;4.22;;
58928;SDS011;44713;53.378;10.022;2023-05-10T08:23:03;4.22;;;3.83;;
58928;SDS011;44713;53.378;10.022;2023-05-10T08:25:29;7.30;;;3.58;;
58928;SDS011;44713;53.378;10.022;2023-05-10T08:27:54;6.25;;;3.63;;
58928;SDS011;44713;53.378;10.022;2023-05-10T08:30:19;4.88;;;3.90;;
58928;SDS011;44713;53.378;10.022;2023-05-10T08:32:45;4.20;;;3.67;;
58928;SDS011;44713;53.378;10.022;2023-05-10T08:35:10;5.40;;;3.97;;
58928;SDS011;44713;53.378;10.022;2023-05-10T08:37:35;4.63;;;3.75;;
58928;SDS011;44713;53.378;10.022;2023-05-10T08:40:01;8.05;;;3.90;;
58928;SDS011;44713;53.378;10.022;2023-05-10T08:42:28;8.35;;;4.07;;
58928;SDS011;44713;53.378;10.022;2023-05-10T08:44:55;4.60;;;3.63;;
58928;SDS011;44713;53.378;10.022;2023-05-10T08:47:22;5.15;;;3.90;;
58928;SDS011;44713;53.378;10.022;2023-05-10T08:49:48;5.35;;;3.97;;
58928;SDS011;44713;53.378;10.022;2023-05-10T08:52:16;8.18;;;4.18;;
58928;SDS011;44713;53.378;10.022;2023-05-10T08:54:43;5.18;;;4.18;;
58928;SDS011;44713;53.378;10.022;2023-05-10T08:57:09;6.07;;;3.90;;
58928;SDS011;44713;53.378;10.022;2023-05-10T08:59:35;5.70;;;4.10;;
58928;SDS011;44713;53.378;10.022;2023-05-10T09:02:03;5.95;;;4.57;;
58928;SDS011;44713;53.378;10.022;2023-05-10T09:04:29;7.18;;;4.85;;
58928;SDS011;44713;53.378;10.022;2023-05-10T09:06:56;5.07;;;4.18;;
58928;SDS011;44713;53.378;10.022;2023-05-10T09:09:21;4.93;;;4.53;;
58928;SDS011;44713;53.378;10.022;2023-05-10T09:11:49;6.95;;;4.68;;
58928;SDS011;44713;53.378;10.022;2023-05-10T09:14:15;7.03;;;4.50;;
58928;SDS011;44713;53.378;10.022;2023-05-10T09:16:41;6.93;;;4.32;;
58928;SDS011;44713;53.378;10.022;2023-05-10T09:19:07;7.68;;;5.38;;
58928;SDS011;44713;53.378;10.022;2023-05-10T09:21:34;6.10;;;4.70;;
58928;SDS011;44713;53.378;10.022;2023-05-10T09:24:15;11.00;;;4.95;;
58928;SDS011;44713;53.378;10.022;2023-05-10T09:26:46;5.40;;;4.90;;
58928;SDS011;44713;53.378;10.022;2023-05-10T09:29:13;6.93;;;4.88;;
58928;SDS011;44713;53.378;10.022;2023-05-10T09:31:43;6.25;;;4.88;;
58928;SDS011;44713;53.378;10.022;2023-05-10T09:34:10;6.07;;;5.45;;
58928;SDS011;44713;53.378;10.022;2023-05-10T09:36:35;7.85;;;5.68;;
58928;SDS011;44713;53.378;10.022;2023-05-10T09:39:00;6.35;;;5.75;;
58928;SDS011;44713;53.378;10.022;2023-05-10T09:41:26;7.57;;;5.53;;
58928;SDS011;44713;53.378;10.022;2023-05-10T09:43:55;6.63;;;5.38;;
58928;SDS011;44713;53.378;10.022;2023-05-10T09:46:21;6.35;;;5.30;;
58928;SDS011;44713;53.378;10.022;2023-05-10T09:48:47;8.02;;;6.00;;
58928;SDS011;44713;53.378;10.022;2023-05-10T09:51:20;9.55;;;5.57;;
58928;SDS011;44713;53.378;10.022;2023-05-10T09:53:46;10.43;;;5.63;;
58928;SDS011;44713;53.378;10.022;2023-05-10T09:56:12;7.95;;;5.63;;
58928;SDS011;44713;53.378;10.022;2023-05-10T09:58:37;7.95;;;6.18;;
58928;SDS011;44713;53.378;10.022;2023-05-10T10:01:09;9.57;;;5.97;;
58928;SDS011;44713;53.378;10.022;2023-05-10T10:03:40;8.98;;;6.10;;
58928;SDS011;44713;53.378;10.022;2023-05-10T10:06:07;9.68;;;6.25;;
58928;SDS011;44713;53.378;10.022;2023-05-10T10:08:33;6.97;;;5.22;;
58928;SDS011;44713;53.378;10.022;2023-05-10T10:10:59;9.00;;;6.28;;
58928;SDS011;44713;53.378;10.022;2023-05-10T10:13:24;6.75;;;6.15;;
58928;SDS011;44713;53.378;10.022;2023-05-10T10:15:50;8.90;;;6.40;;
58928;SDS011;44713;53.378;10.022;2023-05-10T10:18:17;8.02;;;6.20;;
58928;SDS011;44713;53.378;10.022;2023-05-10T10:20:42;8.68;;;6.65;;
58928;SDS011;44713;53.378;10.022;2023-05-10T10:23:08;10.88;;;6.00;;
58928;SDS011;44713;53.378;10.022;2023-05-10T10:25:33;9.80;;;6.95;;
58928;SDS011;44713;53.378;10.022;2023-05-10T10:30:51;8.48;;;7.18;;
58928;SDS011;44713;53.378;10.022;2023-05-10T10:36:01;10.55;;;7.35;;
58928;SDS011;44713;53.378;10.022;2023-05-10T10:38:54;11.85;;;6.32;;
58928;SDS011;44713;53.378;10.022;2023-05-10T10:41:37;10.80;;;7.93;;
58928;SDS011;44713;53.378;10.022;2023-05-10T10:44:25;8.63;;;7.78;;
58928;SDS011;44713;53.378;10.022;2023-05-10T10:52:36;10.68;;;8.35;;
58928;SDS011;44713;53.378;10.022;2023-05-10T10:55:09;10.65;;;7.60;;
58928;SDS011;44713;53.378;10.022;2023-05-10T11:00:18;8.98;;;7.72;;
58928;SDS011;44713;53.378;10.022;2023-05-10T11:02:44;11.45;;;8.07;;
58928;SDS011;44713;53.378;10.022;2023-05-10T11:07:58;10.45;;;7.97;;
58928;SDS011;44713;53.378;10.022;2023-05-10T11:10:25;10.95;;;7.93;;
58928;SDS011;44713;53.378;10.022;2023-05-10T11:18:16;13.80;;;8.43;;
58928;SDS011;44713;53.378;10.022;2023-05-10T11:20:52;10.73;;;8.00;;
58928;SDS011;44713;53.378;10.022;2023-05-10T11:23:21;8.63;;;7.78;;
58928;SDS011;44713;53.378;10.022;2023-05-10T11:25:47;9.73;;;8.45;;
58928;SDS011;44713;53.378;10.022;2023-05-10T11:28:13;12.27;;;8.30;;
58928;SDS011;44713;53.378;10.022;2023-05-10T11:30:40;10.10;;;8.25;;
58928;SDS011;44713;53.378;10.022;2023-05-10T11:33:07;8.40;;;7.38;;
58928;SDS011;44713;53.378;10.022;2023-05-10T11:35:39;9.70;;;7.88;;
58928;SDS011;44713;53.378;10.022;2023-05-10T11:38:12;9.70;;;8.23;;
58928;SDS011;44713;53.378;10.022;2023-05-10T11:40:38;9.98;;;8.82;;
58928;SDS011;44713;53.378;10.022;2023-05-10T11:43:07;10.20;;;8.55;;
58928;SDS011;44713;53.378;10.022;2023-05-10T11:45:34;11.50;;;8.52;;
58928;SDS011;44713;53.378;10.022;2023-05-10T11:48:00;9.68;;;8.02;;
58928;SDS011;44713;53.378;10.022;2023-05-10T11:50:26;10.98;;;8.40;;
58928;SDS011;44713;53.378;10.022;2023-05-10T11:52:52;10.23;;;8.02;;
58928;SDS011;44713;53.378;10.022;2023-05-10T11:55:18;10.15;;;8.00;;
58928;SDS011;44713;53.378;10.022;2023-05-10T11:57:44;9.48;;;7.15;;
58928;SDS011;44713;53.378;10.022;2023-05-10T12:00:11;9.38;;;7.60;;
58928;SDS011;44713;53.378;10.022;2023-05-10T12:02:37;16.08;;;6.55;;
58928;SDS011;44713;53.378;10.022;2023-05-10T12:05:02;7.65;;;5.70;;
58928;SDS011;44713;53.378;10.022;2023-05-10T12:07:30;8.85;;;6.80;;
58928;SDS011;44713;53.378;10.022;2023-05-10T12:10:02;9.55;;;6.63;;
58928;SDS011;44713;53.378;10.022;2023-05-10T12:12:34;7.32;;;6.63;;
58928;SDS011;44713;53.378;10.022;2023-05-10T12:15:01;7.88;;;7.07;;
58928;SDS011;44713;53.378;10.022;2023-05-10T12:17:29;7.32;;;6.60;;
58928;SDS011;44713;53.378;10.022;2023-05-10T12:19:58;10.25;;;7.32;;
58928;SDS011;44713;53.378;10.022;2023-05-10T12:22:24;7.55;;;6.80;;
58928;SDS011;44713;53.378;10.022;2023-05-10T12:24:50;7.78;;;6.97;;
58928;SDS011;44713;53.378;10.022;2023-05-10T12:27:15;7.60;;;6.88;;
58928;SDS011;44713;53.378;10.022;2023-05-10T12:29:41;7.47;;;6.78;;
58928;SDS011;44713;53.378;10.022;2023-05-10T12:32:09;7.95;;;6.22;;
58928;SDS011;44713;53.378;10.022;2023-05-10T12:34:35;8.98;;;6.45;;
58928;SDS011;44713;53.378;10.022;2023-05-10T12:37:03;7.63;;;6.65;;
58928;SDS011;44713;53.378;10.022;2023-05-10T12:39:38;7.38;;;6.00;;
58928;SDS011;44713;53.378;10.022;2023-05-10T12:42:07;7.70;;;6.90;;
58928;SDS011;44713;53.378;10.022;2023-05-10T12:44:33;6.43;;;5.82;;
58928;SDS011;44713;53.378;10.022;2023-05-10T12:46:58;6.90;;;6.03;;
58928;SDS011;44713;53.378;10.022;2023-05-10T12:49:24;6.90;;;6.18;;
58928;SDS011;44713;53.378;10.022;2023-05-10T12:51:49;6.68;;;6.07;;
58928;SDS011;44713;53.378;10.022;2023-05-10T12:54:15;6.95;;;6.25;;
58928;SDS011;44713;53.378;10.022;2023-05-10T12:56:40;6.28;;;4.97;;
58928;SDS011;44713;53.378;10.022;2023-05-10T12:59:07;6.13;;;5.50;;
58928;SDS011;44713;53.378;10.022;2023-05-10T13:01:33;6.82;;;5.70;;
58928;SDS011;44713;53.378;10.022;2023-05-10T13:03:58;6.10;;;5.50;;
58928;SDS011;44713;53.378;10.022;2023-05-10T13:06:25;6.60;;;5.50;;
58928;SDS011;44713;53.378;10.022;2023-05-10T13:08:50;7.35;;;6.38;;
58928;SDS011;44713;53.378;10.022;2023-05-10T13:11:16;6.82;;;6.20;;
58928;SDS011;44713;53.378;10.022;2023-05-10T13:13:42;6.07;;;5.40;;
58928;SDS011;44713;53.378;10.022;2023-05-10T13:16:07;7.30;;;6.13;;
58928;SDS011;44713;53.378;10.022;2023-05-10T13:18:33;6.95;;;6.35;;
58928;SDS011;44713;53.378;10.022;2023-05-10T13:20:58;8.68;;;6.20;;
58928;SDS011;44713;53.378;10.022;2023-05-10T13:23:23;6.75;;;6.03;;
58928;SDS011;44713;53.378;10.022;2023-05-10T13:25:49;8.80;;;5.68;;
58928;SDS011;44713;53.378;10.022;2023-05-10T13:28:14;5.35;;;4.95;;
58928;SDS011;44713;53.378;10.022;2023-05-10T13:30:40;6.68;;;6.00;;
58928;SDS011;44713;53.378;10.022;2023-05-10T13:33:05;6.78;;;6.07;;
58928;SDS011;44713;53.378;10.022;2023-05-10T13:35:31;6.35;;;5.75;;
58928;SDS011;44713;53.378;10.022;2023-05-10T13:37:56;6.72;;;6.13;;
58928;SDS011;44713;53.378;10.022;2023-05-10T13:40:22;6.25;;;5.68;;
58928;SDS011;44713;53.378;10.022;2023-05-10T13:42:48;8.07;;;6.53;;
58928;SDS011;44713;53.378;10.022;2023-05-10T13:45:13;6.68;;;5.88;;
58928;SDS011;44713;53.378;10.022;2023-05-10T13:47:38;6.07;;;5.50;;
58928;SDS011;44713;53.378;10.022;2023-05-10T13:50:04;7.50;;;6.78;;
58928;SDS011;44713;53.378;10.022;2023-05-10T13:52:30;7.75;;;6.75;;
58928;SDS011;44713;53.378;10.022;2023-05-10T13:54:55;6.78;;;6.10;;
58928;SDS011;44713;53.378;10.022;2023-05-10T13:57:22;5.78;;;4.95;;
58928;SDS011;44713;53.378;10.022;2023-05-10T13:59:48;8.93;;;5.38;;
58928;SDS011;44713;53.378;10.022;2023-05-10T14:02:13;6.47;;;5.05;;
58928;SDS011;44713;53.378;10.022;2023-05-10T14:04:38;5.80;;;5.10;;
58928;SDS011;44713;53.378;10.022;2023-05-10T14:07:04;6.95;;;5.13;;
58928;SDS011;44713;53.378;10.022;2023-05-10T14:09:29;5.95;;;5.35;;
58928;SDS011;44713;53.378;10.022;2023-05-10T14:11:55;5.53;;;5.03;;
58928;SDS011;44713;53.378;10.022;2023-05-10T14:14:20;6.20;;;5.18;;
58928;SDS011;44713;53.378;10.022;2023-05-10T14:16:46;5.20;;;4.70;;
58928;SDS011;44713;53.378;10.022;2023-05-10T14:19:11;4.85;;;4.40;;
58928;SDS011;44713;53.378;10.022;2023-05-10T14:21:37;4.95;;;4.45;;
58928;SDS011;44713;53.378;10.022;2023-05-10T14:24:03;5.45;;;4.55;;
58928;SDS011;44713;53.378;10.022;2023-05-10T14:26:29;4.90;;;4.15;;
58928;SDS011;44713;53.378;10.022;2023-05-10T14:28:54;6.38;;;4.70;;
58928;SDS011;44713;53.378;10.022;2023-05-10T14:31:20;4.78;;;4.20;;
58928;SDS011;44713;53.378;10.022;2023-05-10T14:33:48;4.35;;;3.95;;
58928;SDS011;44713;53.378;10.022;2023-05-10T14:36:14;7.10;;;4.30;;
58928;SDS011;44713;53.378;10.022;2023-05-10T14:38:39;4.50;;;4.10;;
58928;SDS011;44713;53.378;10.022;2023-05-10T14:41:05;4.25;;;3.83;;
58928;SDS011;44713;53.378;10.022;2023-05-10T14:43:30;4.28;;;3.88;;
58928;SDS011;44713;53.378;10.022;2023-05-10T14:45:56;4.30;;;3.90;;
58928;SDS011;44713;53.378;10.022;2023-05-10T14:48:21;4.20;;;3.80;;
58928;SDS011;44713;53.378;10.022;2023-05-10T14:50:47;4.95;;;4.35;;
58928;SDS011;44713;53.378;10.022;2023-05-10T14:53:12;3.92;;;3.63;;
58928;SDS011;44713;53.378;10.022;2023-05-10T14:55:37;4.18;;;3.78;;
58928;SDS011;44713;53.378;10.022;2023-05-10T14:58:04;4.22;;;3.83;;
58928;SDS011;44713;53.378;10.022;2023-05-10T15:00:29;4.05;;;3.70;;
58928;SDS011;44713;53.378;10.022;2023-05-10T15:02:54;4.28;;;3.88;;
58928;SDS011;44713;53.378;10.022;2023-05-10T15:05:20;3.83;;;3.45;;